Terminal Aerodrome Forecast
Issued by NWS Topeka, KS

Home | Current Version | Previous Version | Graphics & Text | Print | Product List | Glossary On
Versions: 1 2 3 4 5 6 7 8 9 10 11 12 13 14 15 16 17 18 19 20 21 22 23 24 25 26 27
000
FTUS43 KTOP 171100
TAFTOP
TAF
KTOP 171130Z 1712/1812 08004KT 6SM BR BKN015
      TEMPO 1712/1715 3SM BR BKN009
     FM171900 15005KT P6SM SCT015
     FM180600 08005KT 4SM BR SCT015 SCT150=

USA.gov is the U.S. government's official web portal to all federal, state and local government web resources and services.